createdAt,value
2018-10-07T00:00:40.482Z,95176.00
2018-10-07T00:06:09.796Z,95178.00
2018-10-07T00:11:39.164Z,95180.00
2018-10-07T00:17:08.513Z,95175.00
2018-10-07T00:22:37.881Z,95185.00
2018-10-07T00:28:07.388Z,95173.00
2018-10-07T00:33:37.770Z,95163.00
2018-10-07T00:39:09.872Z,95167.00
2018-10-07T00:44:39.244Z,95160.00
2018-10-07T00:50:08.677Z,95165.00
2018-10-07T00:55:37.997Z,95174.00
2018-10-07T01:01:07.525Z,95166.00
2018-10-07T01:06:38.890Z,95167.00
2018-10-07T01:12:08.280Z,95156.00
2018-10-07T01:17:37.585Z,95156.00
2018-10-07T01:23:07.320Z,95161.00
2018-10-07T01:28:37.716Z,95162.00
2018-10-07T01:34:07.120Z,95155.00
2018-10-07T01:39:36.519Z,95162.00
2018-10-07T01:45:06.558Z,95155.00
2018-10-07T01:50:35.918Z,95159.00
2018-10-07T01:56:05.652Z,95167.00
2018-10-07T02:01:36.008Z,95163.00
2018-10-07T02:07:05.271Z,95155.00
2018-10-07T02:12:34.594Z,95172.00
2018-10-07T02:18:03.836Z,95166.00
2018-10-07T02:23:33.069Z,95158.00
2018-10-07T02:29:02.340Z,95171.00
2018-10-07T02:34:31.580Z,95171.00
2018-10-07T02:40:00.819Z,95173.00
2018-10-07T02:45:30.116Z,95179.00
2018-10-07T02:50:59.378Z,95185.00
2018-10-07T02:56:28.701Z,95186.00
2018-10-07T03:01:57.968Z,95169.00
2018-10-07T03:07:27.236Z,95179.00
2018-10-07T03:12:56.521Z,95183.00
2018-10-07T03:18:25.804Z,95181.00
2018-10-07T03:23:55.093Z,95178.00
2018-10-07T03:29:24.391Z,95186.00
2018-10-07T03:34:53.612Z,95183.00
2018-10-07T03:40:22.812Z,95184.00
2018-10-07T03:45:52.063Z,95168.00
2018-10-07T03:51:21.455Z,95182.00
2018-10-07T03:56:50.742Z,95191.00
2018-10-07T04:02:20.136Z,95198.00
2018-10-07T04:07:49.345Z,95192.00
2018-10-07T04:13:18.733Z,95198.00
2018-10-07T04:18:47.985Z,95197.00
2018-10-07T04:24:17.204Z,95191.00
2018-10-07T04:29:46.458Z,95198.00
2018-10-07T04:35:15.709Z,95210.00
2018-10-07T04:40:44.924Z,95201.00
2018-10-07T04:46:14.229Z,95226.00
2018-10-07T04:51:43.407Z,95228.00
2018-10-07T04:57:12.776Z,95227.00
2018-10-07T05:02:42.001Z,95233.00
2018-10-07T05:08:11.335Z,95244.00
2018-10-07T05:13:46.592Z,95242.00
2018-10-07T05:19:15.837Z,95246.00
2018-10-07T05:24:45.140Z,95259.00
2018-10-07T05:30:14.412Z,95261.00
2018-10-07T05:35:43.796Z,95265.00
2018-10-07T05:41:16.280Z,95272.00
2018-10-07T05:46:45.554Z,95263.00
2018-10-07T05:52:14.780Z,95273.00
2018-10-07T05:57:44.100Z,95290.00
2018-10-07T06:03:32.276Z,95291.00
2018-10-07T06:09:02.264Z,95284.00
2018-10-07T06:14:48.555Z,95291.00
2018-10-07T06:20:18.829Z,95302.00
2018-10-07T06:25:48.128Z,95300.00
2018-10-07T06:31:17.332Z,95309.00
2018-10-07T06:36:47.156Z,95313.00
2018-10-07T06:42:16.648Z,95323.00
2018-10-07T06:47:46.044Z,95325.00
2018-10-07T06:53:15.496Z,95342.00
2018-10-07T06:58:44.744Z,95345.00
2018-10-07T07:04:14.111Z,95356.00
2018-10-07T07:09:43.409Z,95355.00
2018-10-07T07:15:14.391Z,95357.00
2018-10-07T07:20:52.039Z,95363.00
2018-10-07T07:26:21.510Z,95377.00
2018-10-07T07:31:50.828Z,95373.00
2018-10-07T07:49:05.410Z,95399.00
2018-10-07T07:54:35.568Z,95418.00
2018-10-07T08:00:05.372Z,95425.00
2018-10-07T08:05:34.656Z,95426.00
2018-10-07T08:11:04.140Z,95438.00
2018-10-07T08:16:34.563Z,95434.00
2018-10-07T08:22:03.866Z,95435.00
2018-10-07T08:27:39.022Z,95439.00
2018-10-07T08:33:08.387Z,95443.00
2018-10-07T08:38:41.517Z,95449.00
2018-10-07T08:44:10.840Z,95448.00
2018-10-07T08:49:42.249Z,95446.00
2018-10-07T08:55:11.756Z,95449.00
2018-10-07T09:00:43.208Z,95447.00
2018-10-07T09:06:12.645Z,95458.00
2018-10-07T09:11:42.295Z,95453.00
2018-10-07T09:17:12.797Z,95460.00
2018-10-07T09:22:43.284Z,95463.00
2018-10-07T09:28:12.521Z,95470.00
2018-10-07T09:33:42.822Z,95476.00
2018-10-07T09:39:12.902Z,95470.00
2018-10-07T09:44:42.211Z,95478.00
2018-10-07T09:50:11.598Z,95479.00
2018-10-07T09:55:40.891Z,95472.00
2018-10-07T10:01:15.029Z,95469.00
2018-10-07T10:06:45.323Z,95477.00
2018-10-07T10:12:15.753Z,95478.00
2018-10-07T10:17:50.305Z,95476.00
2018-10-07T10:25:44.199Z,95485.00
2018-10-07T10:31:28.621Z,95492.00
2018-10-07T10:37:03.489Z,95493.00
2018-10-07T10:44:46.681Z,95499.00
2018-10-07T10:50:58.159Z,95503.00
2018-10-07T10:56:39.688Z,95499.00
2018-10-07T11:02:21.162Z,95506.00
2018-10-07T11:08:06.279Z,95508.00
2018-10-07T11:13:47.289Z,95509.00
2018-10-07T11:19:34.700Z,95510.00
2018-10-07T11:25:39.502Z,95505.00
2018-10-07T11:31:27.911Z,95512.00
2018-10-07T11:37:12.533Z,95514.00
2018-10-07T11:42:48.741Z,95513.00
2018-10-07T11:48:46.919Z,95512.00
2018-10-07T11:54:36.045Z,95514.00
2018-10-07T12:00:05.684Z,95510.00
2018-10-07T12:05:36.323Z,95509.00
2018-10-07T12:11:05.614Z,95515.00
2018-10-07T12:16:39.113Z,95513.00
2018-10-07T12:22:08.926Z,95518.00
2018-10-07T12:27:38.206Z,95523.00
2018-10-07T12:33:09.780Z,95527.00
2018-10-07T12:38:50.988Z,95524.00
2018-10-07T12:44:20.435Z,95534.00
2018-10-07T12:49:52.728Z,95535.00
2018-10-07T12:55:22.173Z,95552.00
2018-10-07T13:00:51.588Z,95549.00
2018-10-07T13:06:21.060Z,95551.00
2018-10-07T13:11:50.289Z,95554.00
2018-10-07T13:17:21.621Z,95555.00
2018-10-07T13:22:50.909Z,95559.00
2018-10-07T13:29:21.591Z,95557.00
2018-10-07T13:34:50.991Z,95560.00
2018-10-07T13:40:20.680Z,95571.00
2018-10-07T13:45:50.157Z,95579.00
2018-10-07T13:51:19.558Z,95571.00
2018-10-07T13:56:48.853Z,95573.00
2018-10-07T14:02:18.221Z,95579.00
2018-10-07T14:07:47.620Z,95581.00
2018-10-07T14:13:17.167Z,95592.00
2018-10-07T14:18:46.672Z,95585.00
2018-10-07T14:24:16.213Z,95584.00
2018-10-07T14:29:47.580Z,95587.00
2018-10-07T14:35:17.336Z,95585.00
2018-10-07T14:40:48.549Z,95588.00
2018-10-07T14:46:18.438Z,95592.00
2018-10-07T14:51:47.812Z,95585.00
2018-10-07T14:57:17.177Z,95584.00
2018-10-07T15:02:49.062Z,95588.00
2018-10-07T15:08:19.056Z,95590.00
2018-10-07T15:13:48.413Z,95590.00
2018-10-07T15:19:17.905Z,95599.00
2018-10-07T15:24:48.245Z,95600.00
2018-10-07T15:30:17.693Z,95601.00
2018-10-07T15:35:47.484Z,95612.00
2018-10-07T15:41:19.193Z,95599.00
2018-10-07T15:46:48.508Z,95609.00
2018-10-07T15:52:17.953Z,95608.00
2018-10-07T15:57:52.236Z,95610.00
2018-10-07T16:03:21.710Z,95622.00
2018-10-07T16:08:52.304Z,95631.00
2018-10-07T16:14:21.779Z,95635.00
2018-10-07T16:19:51.306Z,95643.00
2018-10-07T16:25:21.758Z,95655.00
2018-10-07T16:36:36.469Z,95670.00
2018-10-07T16:42:06.141Z,95681.00
2018-10-07T16:47:35.657Z,95681.00
2018-10-07T16:53:04.986Z,95686.00
2018-10-07T16:58:34.236Z,95688.00
2018-10-07T17:04:03.686Z,95699.00
2018-10-07T17:09:33.096Z,95703.00
2018-10-07T17:15:02.665Z,95711.00
2018-10-07T17:20:32.400Z,95711.00
2018-10-07T17:26:02.850Z,95710.00
2018-10-07T17:31:32.278Z,95710.00
2018-10-07T17:37:01.763Z,95725.00
2018-10-07T17:42:32.082Z,95723.00
2018-10-07T17:48:02.627Z,95725.00
2018-10-07T17:53:31.977Z,95737.00
2018-10-07T17:59:03.374Z,95739.00
2018-10-07T18:04:33.250Z,95756.00
2018-10-07T18:10:02.782Z,95753.00
2018-10-07T18:15:32.846Z,95752.00
2018-10-07T18:21:02.553Z,95763.00
2018-10-07T18:26:36.478Z,95764.00
2018-10-07T18:32:10.840Z,95766.00
2018-10-07T18:37:59.051Z,95777.00
2018-10-07T18:43:31.772Z,95777.00
2018-10-07T18:49:05.179Z,95780.00
2018-10-07T18:54:38.572Z,95780.00
2018-10-07T19:00:12.089Z,95787.00
2018-10-07T19:05:42.668Z,95796.00
2018-10-07T19:11:13.397Z,95808.00
2018-10-07T19:16:51.099Z,95804.00
2018-10-07T19:22:21.335Z,95814.00
2018-10-07T19:27:51.394Z,95812.00
2018-10-07T19:33:21.974Z,95820.00
2018-10-07T19:38:52.130Z,95806.00
2018-10-07T19:44:21.618Z,95800.00
2018-10-07T19:50:03.100Z,95802.00
2018-10-07T19:55:33.655Z,95807.00
2018-10-07T20:01:15.533Z,95805.00
2018-10-07T20:06:47.069Z,95810.00
2018-10-07T20:12:17.013Z,95821.00
2018-10-07T20:17:49.254Z,95817.00
2018-10-07T20:23:27.063Z,95828.00
2018-10-07T20:28:58.927Z,95838.00
2018-10-07T20:34:28.374Z,95843.00
2018-10-07T20:40:01.576Z,95850.00
2018-10-07T20:45:33.126Z,95862.00
2018-10-07T20:51:03.890Z,95851.00
2018-10-07T20:56:33.410Z,95854.00
2018-10-07T21:02:05.831Z,95860.00
2018-10-07T21:07:36.785Z,95862.00
2018-10-07T21:13:06.805Z,95857.00
2018-10-07T21:18:37.559Z,95857.00
2018-10-07T21:24:08.255Z,95867.00
2018-10-07T21:29:44.572Z,95869.00
2018-10-07T21:35:15.789Z,95871.00
2018-10-07T21:40:45.216Z,95870.00
2018-10-07T21:46:16.659Z,95877.00
2018-10-07T21:51:47.330Z,95886.00
2018-10-07T21:57:16.680Z,95872.00
2018-10-07T22:02:47.044Z,95892.00
2018-10-07T22:08:17.391Z,95890.00
2018-10-07T22:13:46.760Z,95877.00
2018-10-07T22:19:16.129Z,95876.00
2018-10-07T22:24:45.453Z,95872.00
2018-10-07T22:30:17.805Z,95878.00
2018-10-07T22:35:47.128Z,95879.00
2018-10-07T22:41:16.636Z,95893.00
2018-10-07T22:46:46.940Z,95886.00
2018-10-07T22:52:16.206Z,95889.00
2018-10-07T22:57:45.524Z,95895.00
2018-10-07T23:03:14.840Z,95891.00
2018-10-07T23:08:50.524Z,95887.00
2018-10-07T23:14:19.991Z,95887.00
2018-10-07T23:19:49.240Z,95887.00
2018-10-07T23:25:18.569Z,95893.00
2018-10-07T23:30:47.924Z,95899.00
2018-10-07T23:36:17.228Z,95901.00
2018-10-07T23:41:47.732Z,95903.00
2018-10-07T23:47:17.043Z,95897.00
2018-10-07T23:52:47.512Z,95891.00
2018-10-07T23:58:16.770Z,95884.00
